sensor_id;sensor_type;location;lat;lon;timestamp;pressure;altitude;pressure_sealevel;temperature;humidity
13581;BME280;6861;46.170;7.222;2023-05-08T00:01:21;96289.78;;;17.56;61.27
13581;BME280;6861;46.170;7.222;2023-05-08T00:03:50;96296.66;;;17.57;61.37
13581;BME280;6861;46.170;7.222;2023-05-08T00:06:19;96294.50;;;17.59;62.07
13581;BME280;6861;46.170;7.222;2023-05-08T00:08:47;96300.56;;;17.60;62.14
13581;BME280;6861;46.170;7.222;2023-05-08T00:11:15;96290.75;;;17.60;62.18
13581;BME280;6861;46.170;7.222;2023-05-08T00:13:43;96291.25;;;17.62;61.86
13581;BME280;6861;46.170;7.222;2023-05-08T00:16:13;96299.66;;;17.64;62.64
13581;BME280;6861;46.170;7.222;2023-05-08T00:18:41;96301.25;;;17.65;61.78
13581;BME280;6861;46.170;7.222;2023-05-08T00:21:09;96300.44;;;17.65;62.19
13581;BME280;6861;46.170;7.222;2023-05-08T00:23:37;96301.53;;;17.64;62.00
13581;BME280;6861;46.170;7.222;2023-05-08T00:26:06;96292.94;;;17.58;61.95
13581;BME280;6861;46.170;7.222;2023-05-08T00:28:34;96299.13;;;17.54;62.13
13581;BME280;6861;46.170;7.222;2023-05-08T00:31:02;96301.59;;;17.50;62.88
13581;BME280;6861;46.170;7.222;2023-05-08T00:33:31;96303.75;;;17.48;62.41
13581;BME280;6861;46.170;7.222;2023-05-08T00:36:00;96298.44;;;17.48;62.81
13581;BME280;6861;46.170;7.222;2023-05-08T00:38:29;96290.81;;;17.47;62.46
13581;BME280;6861;46.170;7.222;2023-05-08T00:40:57;96299.06;;;17.45;62.66
13581;BME280;6861;46.170;7.222;2023-05-08T00:43:26;96295.13;;;17.43;62.70
13581;BME280;6861;46.170;7.222;2023-05-08T00:45:55;96297.00;;;17.42;63.09
13581;BME280;6861;46.170;7.222;2023-05-08T00:48:24;96294.66;;;17.41;62.95
13581;BME280;6861;46.170;7.222;2023-05-08T00:50:57;96299.13;;;17.31;62.43
13581;BME280;6861;46.170;7.222;2023-05-08T00:53:26;96297.91;;;17.15;63.10
13581;BME280;6861;46.170;7.222;2023-05-08T00:55:55;96302.72;;;16.99;63.28
13581;BME280;6861;46.170;7.222;2023-05-08T00:58:24;96305.59;;;16.89;63.31
13581;BME280;6861;46.170;7.222;2023-05-08T01:00:55;96297.28;;;16.82;63.41
13581;BME280;6861;46.170;7.222;2023-05-08T01:03:24;96309.03;;;16.76;63.17
13581;BME280;6861;46.170;7.222;2023-05-08T01:05:53;96305.41;;;16.72;63.98
13581;BME280;6861;46.170;7.222;2023-05-08T01:08:23;96301.97;;;16.71;63.76
13581;BME280;6861;46.170;7.222;2023-05-08T01:10:59;96299.63;;;16.70;64.00
13581;BME280;6861;46.170;7.222;2023-05-08T01:13:34;96298.94;;;16.64;64.22
13581;BME280;6861;46.170;7.222;2023-05-08T01:16:10;96301.38;;;16.61;64.32
13581;BME280;6861;46.170;7.222;2023-05-08T01:18:44;96301.47;;;16.56;64.00
13581;BME280;6861;46.170;7.222;2023-05-08T01:21:25;96310.75;;;16.53;64.41
13581;BME280;6861;46.170;7.222;2023-05-08T01:24:22;96308.69;;;16.50;64.35
13581;BME280;6861;46.170;7.222;2023-05-08T01:30:18;96309.22;;;16.38;64.42
13581;BME280;6861;46.170;7.222;2023-05-08T01:32:54;96301.38;;;16.33;64.20
13581;BME280;6861;46.170;7.222;2023-05-08T01:35:28;96300.81;;;16.36;64.43
13581;BME280;6861;46.170;7.222;2023-05-08T01:38:00;96304.72;;;16.39;64.52
13581;BME280;6861;46.170;7.222;2023-05-08T01:40:34;96301.38;;;16.47;64.14
13581;BME280;6861;46.170;7.222;2023-05-08T01:43:12;96303.13;;;16.52;64.16
13581;BME280;6861;46.170;7.222;2023-05-08T01:45:44;96308.41;;;16.52;64.46
13581;BME280;6861;46.170;7.222;2023-05-08T01:48:17;96298.72;;;16.47;63.90
13581;BME280;6861;46.170;7.222;2023-05-08T01:50:48;96309.00;;;16.49;63.88
13581;BME280;6861;46.170;7.222;2023-05-08T01:53:22;96305.28;;;16.50;63.79
13581;BME280;6861;46.170;7.222;2023-05-08T01:55:54;96309.19;;;16.52;64.23
13581;BME280;6861;46.170;7.222;2023-05-08T01:58:24;96306.25;;;16.54;63.36
13581;BME280;6861;46.170;7.222;2023-05-08T02:00:53;96312.03;;;16.56;63.95
13581;BME280;6861;46.170;7.222;2023-05-08T02:03:24;96306.25;;;16.54;64.15
13581;BME280;6861;46.170;7.222;2023-05-08T02:05:54;96309.97;;;16.53;63.81
13581;BME280;6861;46.170;7.222;2023-05-08T02:08:25;96314.09;;;16.45;64.27
13581;BME280;6861;46.170;7.222;2023-05-08T02:10:57;96303.84;;;16.44;64.45
13581;BME280;6861;46.170;7.222;2023-05-08T02:13:28;96315.47;;;16.43;63.96
13581;BME280;6861;46.170;7.222;2023-05-08T02:15:59;96315.19;;;16.44;63.85
13581;BME280;6861;46.170;7.222;2023-05-08T02:18:30;96316.75;;;16.45;64.12
13581;BME280;6861;46.170;7.222;2023-05-08T02:20:59;96313.78;;;16.47;63.72
13581;BME280;6861;46.170;7.222;2023-05-08T02:23:29;96315.34;;;16.48;63.79
13581;BME280;6861;46.170;7.222;2023-05-08T02:25:58;96317.53;;;16.46;64.14
13581;BME280;6861;46.170;7.222;2023-05-08T02:28:28;96316.84;;;16.40;63.91
13581;BME280;6861;46.170;7.222;2023-05-08T02:30:57;96310.09;;;16.34;64.61
13581;BME280;6861;46.170;7.222;2023-05-08T02:33:30;96313.50;;;16.34;63.87
13581;BME280;6861;46.170;7.222;2023-05-08T02:35:59;96311.38;;;16.36;63.86
13581;BME280;6861;46.170;7.222;2023-05-08T02:38:29;96313.72;;;16.38;64.25
13581;BME280;6861;46.170;7.222;2023-05-08T02:41:00;96303.44;;;16.36;64.07
13581;BME280;6861;46.170;7.222;2023-05-08T02:43:29;96309.22;;;16.38;63.91
13581;BME280;6861;46.170;7.222;2023-05-08T02:46:11;96314.09;;;16.45;64.14
13581;BME280;6861;46.170;7.222;2023-05-08T02:48:54;96321.13;;;16.50;64.07
13581;BME280;6861;46.170;7.222;2023-05-08T02:51:26;96315.25;;;16.53;64.26
13581;BME280;6861;46.170;7.222;2023-05-08T02:54:00;96316.25;;;16.57;63.78
13581;BME280;6861;46.170;7.222;2023-05-08T02:56:36;96321.72;;;16.60;63.43
13581;BME280;6861;46.170;7.222;2023-05-08T02:59:13;96310.94;;;16.57;63.78
13581;BME280;6861;46.170;7.222;2023-05-08T03:01:48;96317.81;;;16.58;63.99
13581;BME280;6861;46.170;7.222;2023-05-08T03:04:23;96311.94;;;16.61;63.28
13581;BME280;6861;46.170;7.222;2023-05-08T03:06:55;96314.81;;;16.64;63.43
13581;BME280;6861;46.170;7.222;2023-05-08T03:09:28;96319.00;;;16.65;63.66
13581;BME280;6861;46.170;7.222;2023-05-08T03:12:02;96310.00;;;16.66;63.68
13581;BME280;6861;46.170;7.222;2023-05-08T03:14:35;96315.28;;;16.66;63.83
13581;BME280;6861;46.170;7.222;2023-05-08T03:17:07;96314.50;;;16.66;63.72
13581;BME280;6861;46.170;7.222;2023-05-08T03:19:40;96305.00;;;16.65;64.09
13581;BME280;6861;46.170;7.222;2023-05-08T03:22:13;96309.00;;;16.62;64.54
13581;BME280;6861;46.170;7.222;2023-05-08T03:24:43;96304.09;;;16.56;64.25
13581;BME280;6861;46.170;7.222;2023-05-08T03:27:13;96300.59;;;16.47;64.43
13581;BME280;6861;46.170;7.222;2023-05-08T03:29:43;96310.69;;;16.45;64.24
13581;BME280;6861;46.170;7.222;2023-05-08T03:32:12;96302.94;;;16.34;64.72
13581;BME280;6861;46.170;7.222;2023-05-08T03:34:42;96307.06;;;16.27;64.56
13581;BME280;6861;46.170;7.222;2023-05-08T03:37:11;96310.66;;;16.17;64.49
13581;BME280;6861;46.170;7.222;2023-05-08T03:39:39;96316.53;;;16.14;64.20
13581;BME280;6861;46.170;7.222;2023-05-08T03:42:08;96311.81;;;16.11;64.88
13581;BME280;6861;46.170;7.222;2023-05-08T03:44:47;96316.31;;;16.11;64.17
13581;BME280;6861;46.170;7.222;2023-05-08T03:47:18;96318.25;;;16.05;64.48
13581;BME280;6861;46.170;7.222;2023-05-08T03:49:48;96316.19;;;16.02;64.52
13581;BME280;6861;46.170;7.222;2023-05-08T03:52:17;96315.22;;;15.98;64.64
13581;BME280;6861;46.170;7.222;2023-05-08T03:54:45;96315.78;;;15.95;64.44
13581;BME280;6861;46.170;7.222;2023-05-08T03:57:13;96316.94;;;15.89;64.56
13581;BME280;6861;46.170;7.222;2023-05-08T03:59:47;96324.38;;;15.87;64.95
13581;BME280;6861;46.170;7.222;2023-05-08T04:02:21;96329.44;;;15.83;64.42
13581;BME280;6861;46.170;7.222;2023-05-08T04:04:59;96328.38;;;15.84;64.70
13581;BME280;6861;46.170;7.222;2023-05-08T04:07:31;96341.19;;;15.91;64.66
13581;BME280;6861;46.170;7.222;2023-05-08T04:10:07;96331.63;;;15.95;64.41
13581;BME280;6861;46.170;7.222;2023-05-08T04:12:39;96336.03;;;15.99;64.62
13581;BME280;6861;46.170;7.222;2023-05-08T04:15:16;96336.53;;;16.01;64.49
13581;BME280;6861;46.170;7.222;2023-05-08T04:17:48;96329.41;;;16.02;64.65
13581;BME280;6861;46.170;7.222;2023-05-08T04:20:20;96323.03;;;16.03;64.25
13581;BME280;6861;46.170;7.222;2023-05-08T04:22:49;96317.28;;;16.01;64.42
13581;BME280;6861;46.170;7.222;2023-05-08T04:25:18;96327.25;;;16.04;64.26
13581;BME280;6861;46.170;7.222;2023-05-08T04:27:47;96331.47;;;16.05;64.75
13581;BME280;6861;46.170;7.222;2023-05-08T04:30:18;96333.03;;;16.06;64.65
13581;BME280;6861;46.170;7.222;2023-05-08T04:32:46;96334.59;;;16.07;64.81
13581;BME280;6861;46.170;7.222;2023-05-08T04:35:15;96336.16;;;16.08;64.14
13581;BME280;6861;46.170;7.222;2023-05-08T04:37:45;96344.69;;;16.19;64.31
13581;BME280;6861;46.170;7.222;2023-05-08T04:40:14;96345.97;;;16.21;64.23
13581;BME280;6861;46.170;7.222;2023-05-08T04:42:42;96341.75;;;16.20;64.25
13581;BME280;6861;46.170;7.222;2023-05-08T04:45:13;96346.75;;;16.22;64.29
13581;BME280;6861;46.170;7.222;2023-05-08T04:47:41;96342.47;;;16.26;64.33
13581;BME280;6861;46.170;7.222;2023-05-08T04:50:10;96345.00;;;16.31;63.98
13581;BME280;6861;46.170;7.222;2023-05-08T04:52:38;96345.78;;;16.31;63.86
13581;BME280;6861;46.170;7.222;2023-05-08T04:55:09;96345.22;;;16.34;64.05
13581;BME280;6861;46.170;7.222;2023-05-08T04:57:37;96347.84;;;16.34;64.22
13581;BME280;6861;46.170;7.222;2023-05-08T05:00:07;96350.50;;;16.34;64.48
13581;BME280;6861;46.170;7.222;2023-05-08T05:02:35;96356.34;;;16.31;64.08
13581;BME280;6861;46.170;7.222;2023-05-08T05:05:04;96347.34;;;16.32;64.49
13581;BME280;6861;46.170;7.222;2023-05-08T05:07:32;96360.06;;;16.30;63.99
13581;BME280;6861;46.170;7.222;2023-05-08T05:10:00;96355.94;;;16.24;63.85
13581;BME280;6861;46.170;7.222;2023-05-08T05:12:30;96367.22;;;16.30;64.20
13581;BME280;6861;46.170;7.222;2023-05-08T05:14:58;96356.34;;;16.31;64.25
13581;BME280;6861;46.170;7.222;2023-05-08T05:17:26;96358.53;;;16.43;63.41
13581;BME280;6861;46.170;7.222;2023-05-08T05:19:54;96363.00;;;16.56;63.53
13581;BME280;6861;46.170;7.222;2023-05-08T05:22:23;96358.91;;;16.64;63.39
13581;BME280;6861;46.170;7.222;2023-05-08T05:24:51;96358.75;;;16.74;62.97
13581;BME280;6861;46.170;7.222;2023-05-08T05:27:19;96359.25;;;16.76;63.03
13581;BME280;6861;46.170;7.222;2023-05-08T05:29:48;96358.44;;;16.76;62.99
13581;BME280;6861;46.170;7.222;2023-05-08T05:32:17;96359.72;;;16.78;63.13
13581;BME280;6861;46.170;7.222;2023-05-08T05:34:46;96363.53;;;16.86;62.92
13581;BME280;6861;46.170;7.222;2023-05-08T05:37:14;96367.94;;;16.90;62.54
13581;BME280;6861;46.170;7.222;2023-05-08T05:39:42;96368.34;;;16.97;63.19
13581;BME280;6861;46.170;7.222;2023-05-08T05:42:10;96375.69;;;17.00;63.17
13581;BME280;6861;46.170;7.222;2023-05-08T05:44:38;96369.31;;;17.01;62.83
13581;BME280;6861;46.170;7.222;2023-05-08T05:47:08;96378.31;;;17.00;62.90
13581;BME280;6861;46.170;7.222;2023-05-08T05:49:36;96373.44;;;16.94;62.69
13581;BME280;6861;46.170;7.222;2023-05-08T05:52:08;96376.38;;;16.92;62.88
13581;BME280;6861;46.170;7.222;2023-05-08T05:54:37;96368.81;;;16.86;62.80
13581;BME280;6861;46.170;7.222;2023-05-08T05:57:05;96378.63;;;16.85;62.91
13581;BME280;6861;46.170;7.222;2023-05-08T05:59:33;96373.63;;;16.84;63.33
13581;BME280;6861;46.170;7.222;2023-05-08T06:02:02;96370.19;;;16.83;62.96
13581;BME280;6861;46.170;7.222;2023-05-08T06:04:31;96372.84;;;16.83;63.09
13581;BME280;6861;46.170;7.222;2023-05-08T06:07:00;96365.41;;;16.85;63.16
13581;BME280;6861;46.170;7.222;2023-05-08T06:09:28;96360.50;;;16.92;62.74
13581;BME280;6861;46.170;7.222;2023-05-08T18:32:52;96185.72;;;22.35;41.41
13581;BME280;6861;46.170;7.222;2023-05-08T18:35:20;96190.50;;;22.30;41.44
13581;BME280;6861;46.170;7.222;2023-05-08T18:37:48;96199.94;;;22.27;41.46
13581;BME280;6861;46.170;7.222;2023-05-08T18:40:17;96208.94;;;22.22;41.96
13581;BME280;6861;46.170;7.222;2023-05-08T18:42:45;96209.16;;;22.17;41.59
13581;BME280;6861;46.170;7.222;2023-05-08T18:45:13;96206.69;;;22.12;42.17
13581;BME280;6861;46.170;7.222;2023-05-08T18:47:42;96199.69;;;22.08;42.23
13581;BME280;6861;46.170;7.222;2023-05-08T18:50:11;96216.69;;;22.03;41.84
13581;BME280;6861;46.170;7.222;2023-05-08T18:52:40;96214.22;;;21.98;42.15
13581;BME280;6861;46.170;7.222;2023-05-08T18:55:09;96228.19;;;21.95;42.07
13581;BME280;6861;46.170;7.222;2023-05-08T18:57:37;96216.63;;;21.91;42.65
13581;BME280;6861;46.170;7.222;2023-05-08T19:00:06;96216.84;;;21.86;42.99
13581;BME280;6861;46.170;7.222;2023-05-08T19:02:34;96219.72;;;21.81;42.73
13581;BME280;6861;46.170;7.222;2023-05-08T19:05:03;96215.19;;;21.81;42.93
13581;BME280;6861;46.170;7.222;2023-05-08T19:07:33;96218.16;;;21.80;42.75
13581;BME280;6861;46.170;7.222;2023-05-08T19:10:01;96209.63;;;21.74;43.05
13581;BME280;6861;46.170;7.222;2023-05-08T19:12:29;96217.03;;;21.69;43.37
13581;BME280;6861;46.170;7.222;2023-05-08T19:14:57;96221.50;;;21.65;43.76
13581;BME280;6861;46.170;7.222;2023-05-08T19:17:25;96222.81;;;21.58;44.21
13581;BME280;6861;46.170;7.222;2023-05-08T19:19:53;96219.56;;;21.53;44.30
13581;BME280;6861;46.170;7.222;2023-05-08T19:22:21;96226.66;;;21.49;44.18
13581;BME280;6861;46.170;7.222;2023-05-08T19:24:51;96221.22;;;21.45;44.43
13581;BME280;6861;46.170;7.222;2023-05-08T19:27:19;96216.88;;;21.41;44.33
13581;BME280;6861;46.170;7.222;2023-05-08T19:29:47;96214.06;;;21.37;44.43
13581;BME280;6861;46.170;7.222;2023-05-08T19:32:15;96217.41;;;21.34;44.43
13581;BME280;6861;46.170;7.222;2023-05-08T19:34:44;96229.47;;;21.32;44.11
13581;BME280;6861;46.170;7.222;2023-05-08T19:37:12;96230.91;;;21.29;44.17
13581;BME280;6861;46.170;7.222;2023-05-08T19:39:40;96228.25;;;21.29;44.68
13581;BME280;6861;46.170;7.222;2023-05-08T19:42:09;96226.34;;;21.30;44.67
13581;BME280;6861;46.170;7.222;2023-05-08T19:44:39;96229.34;;;21.28;44.75
13581;BME280;6861;46.170;7.222;2023-05-08T19:47:07;96221.81;;;21.30;44.88
13581;BME280;6861;46.170;7.222;2023-05-08T19:49:36;96229.78;;;21.30;44.68
13581;BME280;6861;46.170;7.222;2023-05-08T19:52:04;96230.13;;;21.29;44.61
13581;BME280;6861;46.170;7.222;2023-05-08T19:54:32;96232.34;;;21.26;44.71
13581;BME280;6861;46.170;7.222;2023-05-08T19:57:00;96223.75;;;21.21;44.89
13581;BME280;6861;46.170;7.222;2023-05-08T19:59:30;96232.25;;;21.14;45.18
13581;BME280;6861;46.170;7.222;2023-05-08T20:01:59;96236.53;;;21.07;45.36
13581;BME280;6861;46.170;7.222;2023-05-08T20:04:27;96236.72;;;21.02;45.65
13581;BME280;6861;46.170;7.222;2023-05-08T20:06:55;96239.91;;;20.95;45.71
13581;BME280;6861;46.170;7.222;2023-05-08T20:09:23;96247.28;;;20.89;45.89
13581;BME280;6861;46.170;7.222;2023-05-08T20:11:52;96236.06;;;20.84;46.42
13581;BME280;6861;46.170;7.222;2023-05-08T20:14:21;96243.91;;;20.80;46.25
13581;BME280;6861;46.170;7.222;2023-05-08T20:16:50;96241.94;;;20.77;46.63
13581;BME280;6861;46.170;7.222;2023-05-08T20:19:18;96244.78;;;20.72;46.77
13581;BME280;6861;46.170;7.222;2023-05-08T20:21:47;96249.63;;;20.70;46.50
13581;BME280;6861;46.170;7.222;2023-05-08T20:24:16;96247.63;;;20.67;46.74
13581;BME280;6861;46.170;7.222;2023-05-08T20:26:44;96255.13;;;20.65;47.10
13581;BME280;6861;46.170;7.222;2023-05-08T20:29:12;96256.88;;;20.61;47.21
13581;BME280;6861;46.170;7.222;2023-05-08T20:31:40;96258.63;;;20.57;47.25
13581;BME280;6861;46.170;7.222;2023-05-08T20:34:10;96257.06;;;20.56;47.44
13581;BME280;6861;46.170;7.222;2023-05-08T20:36:38;96266.78;;;20.52;47.62
13581;BME280;6861;46.170;7.222;2023-05-08T20:39:07;96268.34;;;20.53;47.64
13581;BME280;6861;46.170;7.222;2023-05-08T20:41:35;96264.59;;;20.54;47.71
13581;BME280;6861;46.170;7.222;2023-05-08T20:44:04;96264.59;;;20.54;47.79
13581;BME280;6861;46.170;7.222;2023-05-08T20:46:33;96252.38;;;20.53;47.70
13581;BME280;6861;46.170;7.222;2023-05-08T20:49:03;96261.16;;;20.53;47.71
13581;BME280;6861;46.170;7.222;2023-05-08T20:51:33;96259.13;;;20.50;47.93
13581;BME280;6861;46.170;7.222;2023-05-08T20:54:03;96262.09;;;20.49;48.23
13581;BME280;6861;46.170;7.222;2023-05-08T20:56:32;96260.09;;;20.46;48.35
13581;BME280;6861;46.170;7.222;2023-05-08T20:59:02;96261.97;;;20.45;48.26
13581;BME280;6861;46.170;7.222;2023-05-08T21:01:30;96258.06;;;20.43;48.67
13581;BME280;6861;46.170;7.222;2023-05-08T21:03:59;96260.88;;;20.38;48.91
13581;BME280;6861;46.170;7.222;2023-05-08T21:06:28;96257.75;;;20.36;48.96
13581;BME280;6861;46.170;7.222;2023-05-08T21:08:58;96258.41;;;20.33;49.17
13581;BME280;6861;46.170;7.222;2023-05-08T21:11:27;96266.41;;;20.24;49.25
13581;BME280;6861;46.170;7.222;2023-05-08T21:13:55;96264.69;;;20.19;49.48
13581;BME280;6861;46.170;7.222;2023-05-08T21:16:24;96264.56;;;20.16;49.53
13581;BME280;6861;46.170;7.222;2023-05-08T21:18:53;96259.56;;;20.14;49.81
13581;BME280;6861;46.170;7.222;2023-05-08T21:21:24;96260.19;;;20.11;49.62
13581;BME280;6861;46.170;7.222;2023-05-08T21:23:52;96256.63;;;20.07;49.93
13581;BME280;6861;46.170;7.222;2023-05-08T21:26:22;96257.38;;;20.08;49.78
13581;BME280;6861;46.170;7.222;2023-05-08T21:28:51;96257.84;;;20.10;49.49
13581;BME280;6861;46.170;7.222;2023-05-08T21:31:19;96267.25;;;20.07;49.52
13581;BME280;6861;46.170;7.222;2023-05-08T21:33:48;96262.72;;;19.99;50.29
13581;BME280;6861;46.170;7.222;2023-05-08T21:36:17;96254.50;;;19.92;50.31
13581;BME280;6861;46.170;7.222;2023-05-08T21:38:46;96255.75;;;19.86;50.23
13581;BME280;6861;46.170;7.222;2023-05-08T21:41:15;96247.97;;;19.81;50.49
13581;BME280;6861;46.170;7.222;2023-05-08T21:43:45;96257.50;;;19.73;50.67
13581;BME280;6861;46.170;7.222;2023-05-08T21:46:13;96247.69;;;19.65;50.80
13581;BME280;6861;46.170;7.222;2023-05-08T21:48:42;96256.28;;;19.62;50.34
13581;BME280;6861;46.170;7.222;2023-05-08T21:51:11;96252.69;;;19.58;50.99
13581;BME280;6861;46.170;7.222;2023-05-08T21:53:40;96244.41;;;19.51;51.25
13581;BME280;6861;46.170;7.222;2023-05-08T21:56:08;96248.31;;;19.45;51.22
13581;BME280;6861;46.170;7.222;2023-05-08T21:58:37;96251.91;;;19.40;51.25
13581;BME280;6861;46.170;7.222;2023-05-08T22:01:07;96243.00;;;19.36;51.61
13581;BME280;6861;46.170;7.222;2023-05-08T22:03:36;96245.19;;;19.34;51.63
13581;BME280;6861;46.170;7.222;2023-05-08T22:06:05;96247.22;;;19.28;52.19
13581;BME280;6861;46.170;7.222;2023-05-08T22:08:34;96248.63;;;19.26;52.14
13581;BME280;6861;46.170;7.222;2023-05-08T22:11:02;96250.97;;;19.27;51.86
13581;BME280;6861;46.170;7.222;2023-05-08T22:13:31;96252.22;;;19.30;51.80
13581;BME280;6861;46.170;7.222;2023-05-08T22:15:59;96234.25;;;19.27;51.93
13581;BME280;6861;46.170;7.222;2023-05-08T22:18:30;96235.50;;;19.29;52.03
13581;BME280;6861;46.170;7.222;2023-05-08T22:20:58;96246.28;;;19.24;52.40
13581;BME280;6861;46.170;7.222;2023-05-08T22:23:27;96239.72;;;19.22;51.96
13581;BME280;6861;46.170;7.222;2023-05-08T22:25:55;96234.41;;;19.22;52.13
13581;BME280;6861;46.170;7.222;2023-05-08T22:28:24;96242.22;;;19.18;52.67
13581;BME280;6861;46.170;7.222;2023-05-08T22:30:58;96240.50;;;19.14;52.62
13581;BME280;6861;46.170;7.222;2023-05-08T22:33:26;96238.94;;;19.13;52.69
13581;BME280;6861;46.170;7.222;2023-05-08T22:35:59;96233.78;;;19.08;52.60
13581;BME280;6861;46.170;7.222;2023-05-08T22:38:28;96237.88;;;19.05;53.27
13581;BME280;6861;46.170;7.222;2023-05-08T22:40:57;96236.00;;;19.06;52.93
13581;BME280;6861;46.170;7.222;2023-05-08T22:43:26;96226.63;;;19.08;52.69
13581;BME280;6861;46.170;7.222;2023-05-08T22:45:55;96239.72;;;19.13;52.53
13581;BME280;6861;46.170;7.222;2023-05-08T22:48:24;96237.22;;;19.17;52.43
13581;BME280;6861;46.170;7.222;2023-05-08T22:50:53;96244.56;;;19.20;52.34
13581;BME280;6861;46.170;7.222;2023-05-08T22:53:23;96239.88;;;19.17;52.84
13581;BME280;6861;46.170;7.222;2023-05-08T22:55:51;96237.38;;;19.12;52.68
13581;BME280;6861;46.170;7.222;2023-05-08T22:58:20;96236.78;;;19.06;52.50
13581;BME280;6861;46.170;7.222;2023-05-08T23:00:51;96236.00;;;19.06;53.09
13581;BME280;6861;46.170;7.222;2023-05-08T23:03:19;96235.53;;;19.04;52.94
13581;BME280;6861;46.170;7.222;2023-05-08T23:05:48;96228.22;;;19.01;53.11
13581;BME280;6861;46.170;7.222;2023-05-08T23:08:16;96242.72;;;18.94;52.57
13581;BME280;6861;46.170;7.222;2023-05-08T23:10:47;96238.50;;;18.93;52.71
13581;BME280;6861;46.170;7.222;2023-05-08T23:13:15;96247.06;;;18.90;53.02
13581;BME280;6861;46.170;7.222;2023-05-08T23:15:44;96243.94;;;18.88;52.50
13581;BME280;6861;46.170;7.222;2023-05-08T23:18:12;96239.72;;;18.79;52.26
13581;BME280;6861;46.170;7.222;2023-05-08T23:20:41;96242.38;;;18.70;52.02
13581;BME280;6861;46.170;7.222;2023-05-08T23:23:09;96239.50;;;18.58;52.62
13581;BME280;6861;46.170;7.222;2023-05-08T23:25:38;96236.81;;;18.49;53.11
13581;BME280;6861;46.170;7.222;2023-05-08T23:28:08;96232.91;;;18.47;53.12
13581;BME280;6861;46.170;7.222;2023-05-08T23:30:36;96241.50;;;18.44;52.77
13581;BME280;6861;46.170;7.222;2023-05-08T23:33:04;96235.25;;;18.40;52.41
13581;BME280;6861;46.170;7.222;2023-05-08T23:35:34;96235.84;;;18.37;52.29
13581;BME280;6861;46.170;7.222;2023-05-08T23:38:03;96237.25;;;18.34;52.16
13581;BME280;6861;46.170;7.222;2023-05-08T23:40:31;96230.69;;;18.31;52.32
13581;BME280;6861;46.170;7.222;2023-05-08T23:43:00;96226.78;;;18.29;52.36
13581;BME280;6861;46.170;7.222;2023-05-08T23:45:30;96227.09;;;18.27;52.09
13581;BME280;6861;46.170;7.222;2023-05-08T23:47:59;96222.09;;;18.26;51.91
13581;BME280;6861;46.170;7.222;2023-05-08T23:50:27;96224.44;;;18.27;52.53
13581;BME280;6861;46.170;7.222;2023-05-08T23:52:56;96227.56;;;18.29;51.84
13581;BME280;6861;46.170;7.222;2023-05-08T23:55:24;96230.69;;;18.31;52.29
13581;BME280;6861;46.170;7.222;2023-05-08T23:57:53;96228.53;;;18.33;52.40
